createdAt,value
2023-04-25T00:02:17.338Z,10.14
2023-04-25T00:04:45.641Z,10.13
2023-04-25T00:07:13.235Z,10.11
2023-04-25T00:09:40.245Z,10.10
2023-04-25T00:12:07.218Z,10.09
2023-04-25T00:14:34.635Z,10.10
2023-04-25T00:17:02.018Z,10.13
2023-04-25T00:19:29.226Z,10.19
2023-04-25T00:21:56.176Z,10.20
2023-04-25T00:24:23.120Z,10.24
2023-04-25T00:26:50.188Z,10.26
2023-04-25T00:29:17.319Z,10.27
2023-04-25T00:31:44.638Z,10.31
2023-04-25T00:34:11.650Z,10.36
2023-04-25T00:36:38.590Z,10.39
2023-04-25T00:39:05.510Z,10.44
2023-04-25T00:41:33.271Z,10.49
2023-04-25T00:44:00.159Z,10.52
2023-04-25T00:46:27.243Z,10.55
2023-04-25T00:48:54.137Z,10.51
2023-04-25T00:51:21.554Z,10.43
2023-04-25T00:53:49.751Z,10.47
2023-04-25T00:56:16.944Z,10.52
2023-04-25T00:58:43.896Z,10.56
2023-04-25T01:01:11.232Z,10.55
2023-04-25T01:03:41.324Z,10.53
2023-04-25T01:06:09.880Z,10.57
2023-04-25T01:08:38.188Z,10.62
2023-04-25T01:11:05.886Z,10.62
2023-04-25T01:13:33.529Z,10.64
2023-04-25T01:16:00.898Z,10.54
2023-04-25T01:18:28.482Z,10.52
2023-04-25T01:20:56.098Z,10.55
2023-04-25T01:23:23.640Z,10.57
2023-04-25T01:25:50.899Z,10.61
2023-04-25T01:28:17.841Z,10.62
2023-04-25T01:30:44.833Z,10.58
2023-04-25T01:33:12.601Z,10.50
2023-04-25T01:35:40.879Z,10.45
2023-04-25T01:38:07.831Z,10.44
2023-04-25T01:40:35.180Z,10.42
2023-04-25T01:43:02.072Z,10.42
2023-04-25T01:45:29.288Z,10.41
2023-04-25T01:47:59.732Z,10.40
2023-04-25T01:50:26.730Z,10.36
2023-04-25T01:52:54.995Z,10.37
2023-04-25T01:55:22.266Z,10.34
2023-04-25T01:58:01.010Z,10.25
2023-04-25T02:00:44.204Z,10.24
2023-04-25T02:03:11.513Z,10.21
2023-04-25T02:05:41.296Z,10.21
2023-04-25T02:08:10.314Z,10.20
2023-04-25T02:10:37.577Z,10.18
2023-04-25T02:13:25.218Z,10.16
2023-04-25T02:15:55.281Z,10.16
2023-04-25T02:18:22.407Z,10.17
2023-04-25T02:20:49.419Z,10.19
2023-04-25T02:23:16.454Z,10.20
2023-04-25T02:25:43.396Z,10.19
2023-04-25T02:28:10.786Z,10.19
2023-04-25T02:30:37.956Z,10.19
2023-04-25T02:33:05.799Z,10.20
2023-04-25T02:35:32.707Z,10.21
2023-04-25T02:37:59.887Z,10.20
2023-04-25T02:40:26.850Z,10.22
2023-04-25T02:42:54.928Z,10.21
2023-04-25T02:45:21.947Z,10.17
2023-04-25T02:47:48.996Z,10.17
2023-04-25T02:50:16.018Z,10.15
2023-04-25T02:52:43.035Z,10.19
2023-04-25T02:55:14.269Z,10.18
2023-04-25T02:57:44.682Z,10.19
2023-04-25T03:00:14.734Z,10.16
2023-04-25T03:02:41.902Z,10.17
2023-04-25T03:05:09.334Z,10.18
2023-04-25T03:07:37.440Z,10.16
2023-04-25T03:10:04.776Z,10.15
2023-04-25T03:12:32.150Z,10.17
2023-04-25T03:14:59.037Z,10.19
2023-04-25T03:17:26.624Z,10.24
2023-04-25T03:19:53.557Z,10.32
2023-04-25T03:22:20.633Z,10.37
2023-04-25T03:24:47.731Z,10.48
2023-04-25T03:27:14.778Z,10.55
2023-04-25T03:29:41.996Z,10.62
2023-04-25T03:32:09.847Z,10.66
2023-04-25T03:34:36.909Z,10.70
2023-04-25T03:37:04.201Z,10.76
2023-04-25T03:39:32.763Z,10.85
2023-04-25T03:41:59.663Z,10.96
2023-04-25T03:44:28.815Z,11.05
2023-04-25T03:46:55.873Z,11.16
2023-04-25T03:49:23.888Z,11.24
2023-04-25T03:52:11.032Z,11.32
2023-04-25T03:54:39.694Z,11.43
2023-04-25T03:57:13.005Z,11.51
2023-04-25T03:59:40.658Z,11.59
2023-04-25T04:02:08.978Z,11.69
2023-04-25T04:04:37.186Z,11.79
2023-04-25T04:07:04.506Z,11.87
2023-04-25T04:09:35.198Z,11.94
2023-04-25T04:12:06.697Z,12.00
2023-04-25T04:14:34.454Z,12.05
2023-04-25T04:17:01.422Z,12.08
2023-04-25T04:19:29.417Z,12.12
2023-04-25T04:22:10.512Z,12.16
2023-04-25T04:24:37.791Z,12.20
2023-04-25T04:27:07.368Z,12.29
2023-04-25T04:29:37.668Z,12.40
2023-04-25T04:32:13.513Z,12.48
2023-04-25T04:34:41.715Z,12.56
2023-04-25T04:37:10.204Z,12.65
2023-04-25T04:39:37.435Z,12.74
2023-04-25T04:42:11.958Z,12.81
2023-04-25T04:44:47.322Z,12.85
2023-04-25T04:47:26.360Z,12.84
2023-04-25T04:50:16.682Z,12.87
2023-04-25T04:53:12.768Z,12.93
2023-04-25T04:55:57.953Z,13.00
2023-04-25T04:58:51.534Z,13.06
2023-04-25T05:01:36.979Z,13.12
2023-04-25T05:04:23.657Z,13.14
2023-04-25T05:07:16.572Z,13.22
2023-04-25T05:10:04.451Z,13.27
2023-04-25T05:12:41.388Z,13.34
2023-04-25T05:15:13.987Z,13.40
2023-04-25T05:18:00.025Z,13.52
2023-04-25T05:20:47.144Z,13.57
2023-04-25T05:23:34.763Z,13.61
2023-04-25T05:26:21.159Z,13.59
2023-04-25T05:29:08.279Z,13.62
2023-04-25T05:31:55.504Z,13.68
2023-04-25T05:34:22.546Z,13.71
2023-04-25T05:37:12.364Z,13.76
2023-04-25T05:39:51.045Z,13.80
2023-04-25T05:42:31.508Z,13.84
2023-04-25T05:45:07.574Z,13.89
2023-04-25T05:47:47.290Z,13.97
2023-04-25T05:50:22.250Z,14.02
2023-04-25T05:52:53.012Z,14.06
2023-04-25T05:55:49.281Z,14.14
2023-04-25T05:58:27.576Z,14.18
2023-04-25T06:00:55.870Z,14.22
2023-04-25T06:03:23.801Z,14.25
2023-04-25T06:05:51.590Z,14.30
2023-04-25T06:08:20.690Z,14.30
2023-04-25T06:10:48.289Z,14.34
2023-04-25T06:13:15.894Z,14.41
2023-04-25T06:15:43.421Z,14.48
2023-04-25T06:18:11.010Z,14.54
2023-04-25T06:20:37.980Z,14.60
2023-04-25T06:23:05.286Z,14.61
2023-04-25T06:25:55.192Z,14.59
2023-04-25T06:28:22.739Z,14.57
2023-04-25T06:30:49.826Z,14.59
2023-04-25T06:33:18.680Z,14.62
2023-04-25T06:35:46.241Z,14.69
2023-04-25T06:38:14.229Z,14.72
2023-04-25T06:40:43.922Z,14.71
2023-04-25T06:43:11.183Z,14.78
2023-04-25T06:45:58.421Z,14.84
2023-04-25T06:48:27.940Z,14.83
2023-04-25T06:50:55.223Z,14.82
2023-04-25T06:53:22.292Z,14.82
2023-04-25T06:55:52.752Z,14.82
2023-04-25T06:58:23.218Z,14.81
2023-04-25T07:00:55.325Z,14.77
2023-04-25T07:03:24.557Z,14.79
2023-04-25T07:05:53.574Z,14.80
2023-04-25T07:08:21.853Z,14.82
2023-04-25T07:10:50.049Z,14.84
2023-04-25T07:13:17.922Z,14.82
2023-04-25T07:15:44.947Z,14.82
2023-04-25T07:18:12.195Z,14.86
2023-04-25T07:20:39.377Z,14.89
2023-04-25T07:23:07.430Z,14.90
2023-04-25T07:25:34.324Z,14.90
2023-04-25T07:28:01.547Z,14.89
2023-04-25T07:30:28.644Z,14.87
2023-04-25T07:32:56.485Z,14.84
2023-04-25T07:35:23.641Z,14.84
2023-04-25T07:37:50.838Z,14.90
2023-04-25T07:40:19.896Z,14.95
2023-04-25T07:42:50.314Z,14.97
2023-04-25T07:45:21.632Z,14.98
2023-04-25T07:47:48.918Z,14.98
2023-04-25T07:50:16.524Z,14.95
2023-04-25T07:52:43.685Z,14.95
2023-04-25T07:55:19.360Z,14.95
2023-04-25T07:57:57.249Z,14.94
2023-04-25T08:00:24.359Z,14.98
2023-04-25T08:02:52.549Z,14.99
2023-04-25T08:05:22.775Z,15.01
2023-04-25T08:07:55.807Z,15.09
2023-04-25T08:10:23.675Z,15.14
2023-04-25T08:12:50.734Z,15.19
2023-04-25T08:15:17.649Z,15.27
2023-04-25T08:17:45.216Z,15.30
2023-04-25T08:20:12.694Z,15.36
2023-04-25T08:22:40.682Z,15.40
2023-04-25T08:25:34.820Z,15.43
2023-04-25T08:28:03.494Z,15.47
2023-04-25T08:30:30.740Z,15.50
2023-04-25T08:32:58.396Z,15.51
2023-04-25T08:35:57.713Z,15.47
2023-04-25T08:38:25.150Z,15.50
2023-04-25T08:40:52.144Z,15.56
2023-04-25T08:43:20.729Z,15.57
2023-04-25T08:45:47.687Z,15.56
2023-04-25T08:48:32.480Z,15.60
2023-04-25T08:51:00.359Z,15.65
2023-04-25T08:53:28.802Z,15.68
2023-04-25T08:55:59.325Z,15.74
2023-04-25T08:58:26.241Z,15.84
2023-04-25T09:00:53.395Z,15.95
2023-04-25T09:03:21.975Z,16.04
2023-04-25T09:05:49.346Z,16.12
2023-04-25T09:08:16.249Z,16.18
2023-04-25T09:10:43.444Z,16.29
2023-04-25T09:13:15.475Z,16.32
2023-04-25T09:16:19.428Z,16.28
2023-04-25T09:18:56.937Z,16.33
2023-04-25T09:21:23.791Z,16.34
2023-04-25T09:23:52.233Z,16.35
2023-04-25T09:26:21.491Z,16.40
2023-04-25T09:28:48.791Z,16.47
2023-04-25T09:31:26.581Z,16.60
2023-04-25T09:34:01.450Z,16.71
2023-04-25T09:36:30.339Z,16.77
2023-04-25T09:39:07.276Z,16.82
2023-04-25T09:41:38.277Z,16.87
2023-04-25T09:44:05.449Z,16.90
2023-04-25T09:46:38.513Z,16.90
2023-04-25T09:49:08.794Z,16.91
2023-04-25T09:51:55.204Z,16.93
2023-04-25T09:54:22.384Z,16.90
2023-04-25T09:56:54.720Z,16.92
2023-04-25T09:59:22.937Z,17.00
2023-04-25T10:01:51.072Z,17.08
2023-04-25T10:04:26.712Z,17.15
2023-04-25T10:07:00.810Z,17.24
2023-04-25T10:09:30.001Z,17.37
2023-04-25T10:11:57.138Z,17.46
2023-04-25T10:14:24.298Z,17.53
2023-04-25T10:16:54.110Z,17.56
2023-04-25T10:19:21.119Z,17.53
2023-04-25T10:21:53.089Z,17.47
2023-04-25T10:24:20.163Z,17.39
2023-04-25T10:26:47.935Z,17.31
2023-04-25T10:29:23.537Z,17.28
2023-04-25T10:31:50.584Z,17.18
2023-04-25T10:34:18.166Z,17.12
2023-04-25T10:36:50.797Z,17.06
2023-04-25T10:39:25.545Z,17.10
2023-04-25T10:41:58.568Z,17.22
2023-04-25T10:44:31.553Z,17.31
2023-04-25T10:46:59.804Z,17.39
2023-04-25T10:49:31.518Z,17.42
2023-04-25T10:52:15.303Z,17.43
2023-04-25T10:55:03.332Z,17.37
2023-04-25T10:57:40.891Z,17.36
2023-04-25T11:00:13.538Z,17.40
2023-04-25T11:02:52.543Z,17.41
2023-04-25T11:05:47.319Z,17.41
2023-04-25T11:08:34.051Z,17.44
2023-04-25T11:11:01.043Z,17.44
2023-04-25T11:13:31.166Z,17.49
2023-04-25T11:16:07.170Z,17.55
2023-04-25T11:18:42.389Z,17.60
2023-04-25T11:21:10.124Z,17.67
2023-04-25T11:23:37.405Z,17.78
2023-04-25T11:26:04.632Z,17.87
2023-04-25T11:28:31.692Z,17.90
2023-04-25T11:30:58.664Z,17.84
2023-04-25T11:33:26.303Z,17.77
2023-04-25T11:35:59.657Z,17.64
2023-04-25T11:38:27.332Z,17.55
2023-04-25T11:40:55.934Z,17.51
2023-04-25T11:43:23.310Z,17.55
2023-04-25T11:45:51.569Z,17.64
2023-04-25T11:48:19.784Z,17.77
2023-04-25T11:50:48.873Z,17.95
2023-04-25T11:53:18.480Z,18.16
2023-04-25T11:55:45.905Z,18.35
2023-04-25T11:58:14.310Z,18.46
2023-04-25T12:00:42.656Z,18.53
2023-04-25T12:03:18.795Z,18.59
2023-04-25T12:05:46.374Z,18.63
2023-04-25T12:08:15.916Z,18.66
2023-04-25T12:10:44.233Z,18.70
2023-04-25T12:13:24.537Z,18.72
2023-04-25T12:15:51.945Z,18.69
2023-04-25T12:18:24.144Z,18.57
2023-04-25T12:20:52.708Z,18.40
2023-04-25T12:23:27.055Z,18.27
2023-04-25T12:25:53.954Z,18.14
2023-04-25T12:28:25.835Z,18.09
2023-04-25T12:31:03.649Z,18.09
2023-04-25T12:33:34.625Z,18.14
2023-04-25T12:36:05.117Z,18.22
2023-04-25T12:38:41.064Z,18.26
2023-04-25T12:41:08.445Z,18.33
2023-04-25T12:43:36.041Z,18.42
2023-04-25T12:46:03.049Z,18.55
2023-04-25T12:48:32.321Z,18.70
2023-04-25T12:51:00.415Z,18.78
2023-04-25T12:53:28.393Z,18.84
2023-04-25T12:55:56.953Z,18.92
2023-04-25T12:58:25.898Z,19.06
2023-04-25T13:00:53.976Z,19.22
2023-04-25T13:03:22.851Z,19.41
2023-04-25T13:05:51.996Z,19.56
2023-04-25T13:08:20.468Z,19.68
2023-04-25T13:10:49.079Z,19.79
2023-04-25T13:13:17.785Z,19.76
2023-04-25T13:15:45.541Z,19.69
2023-04-25T13:18:13.372Z,19.70
2023-04-25T13:20:41.158Z,19.76
2023-04-25T13:23:08.645Z,19.88
2023-04-25T13:25:36.087Z,19.92
2023-04-25T13:28:03.767Z,19.99
2023-04-25T13:30:31.173Z,19.99
2023-04-25T13:33:03.706Z,19.98
2023-04-25T13:35:31.101Z,19.94
2023-04-25T13:37:58.295Z,20.01
2023-04-25T13:40:25.907Z,20.15
2023-04-25T13:42:53.577Z,20.28
2023-04-25T13:45:21.545Z,20.35
2023-04-25T13:47:49.217Z,20.39
2023-04-25T13:50:16.843Z,20.31
2023-04-25T13:52:44.036Z,20.27
2023-04-25T13:55:11.567Z,20.31
2023-04-25T13:57:41.126Z,20.28
2023-04-25T14:00:09.755Z,20.25
2023-04-25T14:02:38.251Z,20.27
2023-04-25T14:05:06.361Z,20.23
2023-04-25T14:07:35.758Z,20.10
2023-04-25T14:10:08.018Z,19.92
2023-04-25T14:12:36.124Z,19.74
2023-04-25T14:15:04.257Z,19.67
2023-04-25T14:17:32.302Z,19.68
2023-04-25T14:20:00.197Z,19.49
2023-04-25T14:22:27.834Z,19.23
2023-04-25T14:24:56.161Z,18.95
2023-04-25T14:27:23.714Z,18.69
2023-04-25T14:29:51.633Z,18.39
2023-04-25T14:32:19.487Z,18.13
2023-04-25T14:34:48.188Z,17.84
2023-04-25T14:37:16.277Z,17.58
2023-04-25T14:39:45.863Z,17.29
2023-04-25T14:42:14.054Z,17.04
2023-04-25T14:44:41.546Z,16.83
2023-04-25T14:47:09.861Z,16.69
2023-04-25T14:49:37.491Z,16.55
2023-04-25T14:52:05.089Z,16.37
2023-04-25T14:54:33.217Z,16.22
2023-04-25T14:57:01.764Z,16.09
2023-04-25T14:59:29.853Z,15.97
2023-04-25T15:01:59.580Z,15.88
2023-04-25T15:04:27.697Z,15.81
2023-04-25T15:06:56.073Z,15.78
2023-04-25T15:09:25.022Z,15.73
2023-04-25T15:11:52.482Z,15.67
2023-04-25T15:14:20.008Z,15.62
2023-04-25T15:16:47.601Z,15.59
2023-04-25T15:19:15.890Z,15.56
2023-04-25T15:21:43.739Z,15.52
2023-04-25T15:24:12.300Z,15.48
2023-04-25T15:26:40.733Z,15.44
2023-04-25T15:29:08.312Z,15.42
2023-04-25T15:31:36.285Z,15.36
2023-04-25T15:34:04.432Z,15.30
2023-04-25T15:36:33.598Z,15.24
2023-04-25T15:39:01.460Z,15.23
2023-04-25T15:41:29.869Z,15.17
2023-04-25T15:43:58.046Z,15.12
2023-04-25T15:46:25.847Z,15.07
2023-04-25T15:48:53.520Z,14.95
2023-04-25T15:51:21.404Z,14.84
2023-04-25T15:53:49.512Z,14.73
2023-04-25T15:56:17.887Z,14.67
2023-04-25T15:58:45.704Z,14.62
2023-04-25T16:01:13.953Z,14.57
2023-04-25T16:03:41.692Z,14.51
2023-04-25T16:06:09.737Z,14.43
2023-04-25T16:08:37.459Z,14.36
2023-04-25T16:11:06.141Z,14.26
2023-04-25T16:13:35.438Z,14.15
2023-04-25T16:16:03.313Z,14.09
2023-04-25T16:18:31.026Z,14.01
2023-04-25T16:20:58.416Z,13.95
2023-04-25T16:23:26.305Z,13.88
2023-04-25T16:25:55.323Z,13.81
2023-04-25T16:28:23.571Z,13.75
2023-04-25T16:30:51.901Z,13.68
2023-04-25T16:33:19.960Z,13.60
2023-04-25T16:35:49.246Z,13.50
2023-04-25T16:38:17.067Z,13.41
2023-04-25T16:40:45.225Z,13.33
2023-04-25T16:43:14.028Z,13.25
2023-04-25T16:45:41.927Z,13.18
2023-04-25T16:48:09.733Z,13.10
2023-04-25T16:50:38.410Z,13.03
2023-04-25T16:53:06.499Z,12.96
2023-04-25T16:55:34.516Z,12.87
2023-04-25T16:58:02.813Z,12.78
2023-04-25T17:00:31.009Z,12.71
2023-04-25T17:02:59.860Z,12.68
2023-04-25T17:05:27.881Z,12.62
2023-04-25T17:07:56.871Z,12.57
2023-04-25T17:10:25.963Z,12.52
2023-04-25T17:12:57.722Z,12.46
2023-04-25T17:15:25.774Z,12.43
2023-04-25T17:17:53.979Z,12.38
2023-04-25T17:20:22.324Z,12.32
2023-04-25T17:23:10.232Z,12.27
2023-04-25T17:25:39.571Z,12.24
2023-04-25T17:28:07.521Z,12.24
2023-04-25T17:30:36.002Z,12.28
2023-04-25T17:33:06.620Z,12.36
2023-04-25T17:35:35.021Z,12.42
2023-04-25T17:38:04.228Z,12.47
2023-04-25T17:40:33.569Z,12.53
2023-04-25T17:43:01.617Z,12.58
2023-04-25T17:45:34.731Z,12.61
2023-04-25T17:48:03.832Z,12.61
2023-04-25T17:50:33.566Z,12.63
2023-04-25T17:53:03.614Z,12.65
2023-04-25T17:55:32.592Z,12.67
2023-04-25T17:58:01.042Z,12.68
2023-04-25T18:00:30.342Z,12.73
2023-04-25T18:02:58.377Z,12.78
2023-04-25T18:05:28.220Z,12.77
2023-04-25T18:07:58.476Z,12.76
2023-04-25T18:10:26.870Z,12.70
2023-04-25T18:13:14.735Z,12.63
2023-04-25T18:15:43.534Z,12.57
2023-04-25T18:18:19.813Z,12.48
2023-04-25T18:20:47.835Z,12.43
2023-04-25T18:23:16.439Z,12.40
2023-04-25T18:25:45.793Z,12.39
2023-04-25T18:28:14.290Z,12.39
2023-04-25T18:30:44.414Z,12.40
2023-04-25T18:33:12.335Z,12.41
2023-04-25T18:35:45.088Z,12.42
2023-04-25T18:38:28.099Z,12.45
2023-04-25T18:41:13.105Z,12.45
2023-04-25T18:44:02.317Z,12.44
2023-04-25T18:46:31.695Z,12.42
2023-04-25T18:49:02.340Z,12.40
2023-04-25T18:51:31.513Z,12.36
2023-04-25T18:54:01.865Z,12.32
2023-04-25T18:56:30.703Z,12.30
2023-04-25T18:58:58.567Z,12.29
2023-04-25T19:01:28.024Z,12.29
2023-04-25T19:03:56.887Z,12.30
2023-04-25T19:06:28.043Z,12.30
2023-04-25T19:08:57.631Z,12.28
2023-04-25T19:11:26.848Z,12.26
2023-04-25T19:13:56.878Z,12.23
2023-04-25T19:16:26.536Z,12.19
2023-04-25T19:18:57.376Z,12.13
2023-04-25T19:21:25.572Z,12.09
2023-04-25T19:23:54.371Z,12.03
2023-04-25T19:26:24.795Z,12.01
2023-04-25T19:29:09.813Z,11.95
2023-04-25T19:31:38.808Z,11.90
2023-04-25T19:34:07.556Z,11.86
2023-04-25T19:36:37.714Z,11.82
2023-04-25T19:39:07.599Z,11.83
2023-04-25T19:41:37.297Z,11.78
2023-04-25T19:44:07.206Z,11.71
2023-04-25T19:46:36.310Z,11.67
2023-04-25T19:49:07.237Z,11.60
2023-04-25T19:51:36.439Z,11.56
2023-04-25T19:54:04.551Z,11.54
2023-04-25T19:56:33.097Z,11.53
2023-04-25T19:59:01.243Z,11.52
2023-04-25T20:01:29.568Z,11.50
2023-04-25T20:03:57.545Z,11.48
2023-04-25T20:06:25.920Z,11.49
2023-04-25T20:08:53.144Z,11.54
2023-04-25T20:11:21.149Z,11.55
2023-04-25T20:13:48.150Z,11.57
2023-04-25T20:16:19.306Z,11.59
2023-04-25T20:18:47.816Z,11.65
2023-04-25T20:21:15.766Z,11.69
2023-04-25T20:23:43.431Z,11.74
2023-04-25T20:26:12.113Z,11.78
2023-04-25T20:28:39.419Z,11.82
2023-04-25T20:31:06.861Z,11.86
2023-04-25T20:33:37.123Z,11.87
2023-04-25T20:36:04.705Z,11.89
2023-04-25T20:38:32.327Z,11.90
2023-04-25T20:41:00.065Z,11.91
2023-04-25T20:43:27.069Z,11.93
2023-04-25T20:45:54.399Z,11.94
2023-04-25T20:48:21.807Z,11.93
2023-04-25T20:50:48.739Z,11.94
2023-04-25T20:53:16.240Z,11.94
2023-04-25T20:55:43.776Z,11.95
2023-04-25T20:58:10.922Z,11.94
2023-04-25T21:00:38.565Z,11.92
2023-04-25T21:03:06.762Z,11.91
2023-04-25T21:05:33.943Z,11.87
2023-04-25T21:08:01.426Z,11.86
2023-04-25T21:10:28.865Z,11.86
2023-04-25T21:12:57.251Z,11.86
2023-04-25T21:15:24.572Z,11.85
2023-04-25T21:17:51.765Z,11.82
2023-04-25T21:20:19.895Z,11.78
2023-04-25T21:22:53.795Z,11.75
2023-04-25T21:25:30.303Z,11.77
2023-04-25T21:27:57.837Z,11.77
2023-04-25T21:30:25.317Z,11.77
2023-04-25T21:32:52.467Z,11.73
2023-04-25T21:35:20.121Z,11.68
2023-04-25T21:37:47.147Z,11.64
2023-04-25T21:40:14.204Z,11.60
2023-04-25T21:42:43.909Z,11.57
2023-04-25T21:45:11.385Z,11.61
2023-04-25T21:47:38.822Z,11.65
2023-04-25T21:50:06.887Z,11.70
2023-04-25T21:52:37.626Z,11.74
2023-04-25T21:55:05.279Z,11.73
2023-04-25T21:57:32.904Z,11.72
2023-04-25T22:00:00.171Z,11.75
2023-04-25T22:02:29.112Z,11.80
2023-04-25T22:04:56.352Z,11.81
2023-04-25T22:07:23.461Z,11.87
2023-04-25T22:09:54.992Z,11.87
2023-04-25T22:12:22.817Z,11.90
2023-04-25T22:14:49.799Z,11.96
2023-04-25T22:17:17.180Z,11.99
2023-04-25T22:19:44.370Z,12.00
2023-04-25T22:22:11.493Z,12.03
2023-04-25T22:24:38.775Z,12.07
2023-04-25T22:27:06.405Z,12.06
2023-04-25T22:29:33.608Z,12.09
2023-04-25T22:32:01.058Z,12.09
2023-04-25T22:34:28.005Z,12.16
2023-04-25T22:36:54.919Z,12.20
2023-04-25T22:39:21.804Z,12.18
2023-04-25T22:41:48.651Z,12.19
2023-04-25T22:44:15.789Z,12.21
2023-04-25T22:46:42.756Z,12.23
2023-04-25T22:49:09.640Z,12.23
2023-04-25T22:51:36.569Z,12.22
2023-04-25T22:54:04.899Z,12.22
2023-04-25T22:56:32.198Z,12.18
2023-04-25T22:58:59.106Z,12.20
2023-04-25T23:01:27.284Z,12.19
2023-04-25T23:03:54.531Z,12.19
2023-04-25T23:06:22.281Z,12.22
2023-04-25T23:08:49.901Z,12.26
2023-04-25T23:11:16.908Z,12.28
2023-04-25T23:13:44.901Z,12.28
2023-04-25T23:16:12.063Z,12.31
2023-04-25T23:18:39.102Z,12.33
2023-04-25T23:21:09.517Z,12.29
2023-04-25T23:23:36.454Z,12.30
2023-04-25T23:26:10.073Z,12.31
2023-04-25T23:28:39.893Z,12.30
2023-04-25T23:31:09.039Z,12.30
2023-04-25T23:33:36.150Z,12.28
2023-04-25T23:36:03.306Z,12.24
2023-04-25T23:38:30.326Z,12.20
2023-04-25T23:40:57.956Z,12.18
2023-04-25T23:43:24.820Z,12.18
2023-04-25T23:45:51.956Z,12.19
2023-04-25T23:48:19.324Z,12.19
2023-04-25T23:50:46.223Z,12.18
2023-04-25T23:53:13.042Z,12.15
2023-04-25T23:55:40.257Z,12.14
2023-04-25T23:58:07.432Z,12.13
